Warm Springs Summit, Nevada Weather observations

Data are for observation ending at time listed.
 Day   Time    Ave.   Ave.  Ave.  Vector   Max.   Stn.    Total    Solar   Ave.  
  of    of     Air    Rel.  Wind   Wind    Wind   Baro.  Precip.   Rad.    Soil  
Year   Day     Temp.  Hum.  Speed  Dir.    Gust   Pres.                    Temp. 
2016   (PST)    F      %     mph   deg.    mph     mb.     in.     W/m2     F   
------------------------------------------------------------------------------
 148   18:40   57.8    19   21.8   287     26.8   769.7    0.00      23    63.8
 148   18:50   57.1    20   19.3   288     23.5   769.8    0.00      10    63.7
 148   19:00   56.4    21   18.6   290     22.1   769.9    0.00       3    63.6
 148   19:10   55.8    22   18.4   287     21.6   769.9    0.00       1    63.5
 148   19:20   55.7    22   19.5   287     22.7   769.9    0.00       0    63.4
 148   19:30   55.6    22   18.9   290     22.9   769.9    0.00       0    63.2
 148   19:40   55.2    23   18.6   294     21.9   770.0    0.00       0    63.1
 148   19:50   55.2    22   18.3   295     21.8   770.1    0.00       0    63.0
 148   20:00   55.2    22   18.7   300     22.5   770.2    0.00       0    62.8
 148   20:10   55.4    21   18.5   306     21.6   770.2    0.00       0    62.7
 148   20:20   55.7    21   17.7   306     20.8   770.3    0.00       0    62.5
 148   20:30   55.5    22   17.0   305     21.4   770.4    0.00       0    62.4
 148   20:40   55.4    22   17.5   306     21.8   770.4    0.00       0    62.3
 148   20:50   55.3    22   17.6   308     23.4   770.3    0.00       0    62.1
 148   21:00   55.7    22   18.5   310     24.9   770.3    0.00       0    62.0
 148   21:10   55.7    23   16.3   310     22.6   770.3    0.00       0    61.8
 148   21:20   55.5    23   15.9   307     20.4   770.5    0.00       0    61.6
 148   21:30   55.5    23   14.3   310     18.6   770.5    0.00       0    61.4
 148   21:40   55.5    23   11.2   316     16.2   770.5    0.00       0    61.4
 148   21:50   55.5    23    9.1   314     13.5   770.8    0.00       0    61.2
 148   22:00   54.4    30   23.6   279     36.5   770.5    0.00       0    61.1
 148   22:10   53.7    32   20.5   315     38.4   770.5    0.00       0    60.9
 148   22:20   52.7    36   22.2   315     34.8   770.2    0.00       0    60.8
 148   22:30   52.5    36   17.6   331     25.9   770.5    0.00       0    60.7
 148   22:40   53.5    33    9.4   343     14.8   770.7    0.00       0    60.6
 148   22:50   53.4    34    9.2   334     13.6   770.7    0.00       0    60.5
 148   23:00   53.4    32    9.9   310     14.7   770.7    0.00       0    60.4
 148   23:10   52.3    32   12.6   303     15.1   770.7    0.00       0    60.3
 148   23:20   52.0    31   14.1   302     17.1   770.7    0.00       0    60.1
 148   23:30   52.3    30   14.7   308     20.7   770.7    0.00       0    60.0
 148   23:40   52.4    29   13.2   315     20.2   770.6    0.00       0    59.8
 148   23:50   52.4    30    9.8   325     14.2   770.7    0.00       0    59.7
 149    0:00   52.6    30    8.8   337     13.1   770.8    0.00       0    59.6
 149    0:10   52.9    30    9.8   347     14.6   770.7    0.00       0    59.6
 149    0:20   52.9    30    9.9   346     14.6   770.7    0.00       0    59.5
 149    0:30   52.8    30    8.9   348     14.7   770.7    0.00       0    59.3
 149    0:40   52.4    31    7.7   354     12.0   770.6    0.00       0    59.3
 149    0:50   52.4    32    7.9   352     12.0   770.7    0.00       0    59.0
 149    1:00   52.4    33    6.5     4     12.1   770.6    0.00       0    59.0
 149    1:10   52.3    32    5.1    16      9.1   770.6    0.00       0    58.9
 149    1:20   52.2    32    4.0    20      7.1   770.6    0.00       0    58.6
 149    1:30   52.3    31    3.8    36      6.3   770.6    0.00       0    58.8
 149    1:40   52.2    32    4.8    73      7.6   770.7    0.00       0    58.7
 149    1:50   51.7    33    6.4    87      9.8   770.6    0.00       0    58.7
 149    2:00   51.0    34    8.7    96     10.9   770.6    0.00       0    58.5
 149    2:10   50.6    34    7.2    89      9.7   770.5    0.00       0    58.4
 149    2:20   50.4    34    8.4    76      9.8   770.5    0.00       0    58.4
 149    2:30   50.5    34    9.0    67     11.1   770.4    0.00       0    58.3
 149    2:40   49.9    35   10.1    56     12.9   770.4    0.00       0    58.2
 149    2:50   49.9    34   10.5    55     13.3   770.4    0.00       0    58.1
 149    3:00   49.4    36    9.9    52     12.8   770.4    0.00       0    58.0
 149    3:10   48.8    37    9.8    53     12.2   770.4    0.00       0    57.9
 149    3:20   48.8    38    9.5    52     11.5   770.5    0.00       0    57.8
 149    3:30   48.6    38   10.8    54     13.6   770.5    0.00       0    57.7
 149    3:40   48.4    38   12.1    56     14.2   770.5    0.00       0    57.7
 149    3:50   48.3    37   11.6    62     14.7   770.6    0.00       0    57.7
 149    4:00   48.3    37   11.4    54     14.7   770.6    0.00       0    57.5
 149    4:10   48.3    37   10.6    53     13.7   770.7    0.00       1    57.5
 149    4:20   48.1    37   10.5    52     13.3   770.8    0.00       4    57.3
 149    4:30   47.9    38    7.7    31     12.0   770.8    0.00       8    57.3
 149    4:40   48.2    37    9.3    25     14.6   770.9    0.00      15    57.2
 149    4:50   48.2    37    9.5    26     15.9   770.9    0.00      29    57.1
 149    5:00   48.7    36    9.9    24     15.5   771.0    0.00      58    57.0
 149    5:10   49.1    36    9.3    28     12.5   771.1    0.00      85    56.9
 149    5:20   49.9    35    9.6    28     14.1   771.1    0.00     136    56.8
 149    5:30   50.3    35    9.6    28     13.6   771.2    0.00     165    56.7
 149    5:40   50.6    35    9.2    28     12.8   771.2    0.00     202    56.6
 149    5:50   51.0    35    9.0    30     12.3   771.2    0.00     237    56.4
 149    6:00   51.5    34    9.2    26     13.0   771.3    0.00     270    56.4
 149    6:10   51.9    34    9.0    27     12.9   771.3    0.00     305    56.3
 149    6:20   51.9    34    9.7    31     13.9   771.5    0.00     333    56.2
 149    6:30   52.3    34    9.3    31     12.8   771.5    0.00     381    56.1
 149    6:40   52.5    34    8.8    34     12.4   771.6    0.00     422    56.1
 149    6:50   52.9    34    9.5    38     12.8   771.7    0.00     543    56.0
 149    7:00   53.4    33    9.1    37     13.0   771.7    0.00     609    56.0
 149    7:10   52.9    34    9.5    35     15.3   771.8    0.00     429    56.0
 149    7:20   51.9    35    9.9    25     13.6   771.9    0.00     390    55.9
 149    7:30   52.2    35    8.9    29     13.7   771.9    0.00     370    55.9
 149    7:40   52.4    34    9.2    31     13.9   772.0    0.00     361    55.9
 149    7:50   52.6    35    8.5    33     13.1   772.0    0.00     379    56.0
 149    8:00   53.2    34    9.2    44     12.6   772.0    0.00     532    56.0
 149    8:10   54.8    32    8.5    42     12.6   772.1    0.00     659    56.1
 149    8:20   55.7    31    8.4    54     13.6   772.1    0.00     707    56.2
 149    8:30   55.3    32    8.0    51     11.5   772.1    0.00     410    56.2
 149    8:40   55.0    32    8.4    55     13.5   772.1    0.00     561    56.3
 149    8:50   56.3    31    7.7    44     12.0   772.2    0.00     599    56.4
 149    9:00   57.7    30    6.9    60     10.9   772.2    0.00     708    56.5
 149    9:10   59.0    29    8.6    77     13.3   772.2    0.00     843    56.6
 149    9:20   59.4    29    8.2    89     13.6   772.2    0.00     892    56.8
 149    9:30   60.7    27    8.5    90     13.5   772.3    0.00     894    56.9
 149    9:40   59.8    28    9.3    98     13.5   772.3    0.00     850    57.0
 149    9:50   60.3    28    7.6    93     13.4   772.3    0.00     872    57.2
 149   10:00   62.5    26    8.9    93     14.3   772.3    0.00    1013    57.4
 149   10:10   61.7    26   10.0   111     15.8   772.3    0.00    1035    57.6
 149   10:20   62.9    25   10.6   103     17.0   772.3    0.00     940    57.8
 149   10:30   62.6    26    9.8   120     14.9   772.4    0.00     936    58.0
 149   10:40   61.0    27   12.3   161     18.6   772.4    0.00     282    58.3
 149   10:50   58.9    29   13.2   110     32.6   772.2    0.00     871    58.5
 149   11:00   59.6    29   11.3   132     19.9   772.3    0.00     313    58.8
 149   11:10   57.3    32   14.6   199     30.2   772.4    0.00     228    59.1
 149   11:20   57.3    32   10.1   185     21.5   772.4    0.00     267    59.3
 149   11:30   59.0    30   16.0   128     27.9   772.2    0.00     626    59.6
 149   11:40   60.0    29   11.8   101     24.4   772.2    0.00    1017    59.9
 149   11:50   62.9    28   11.9   127     21.2   772.2    0.00    1115    60.1
 149   12:00   61.1    29   12.5   125     22.4   772.1    0.00     611    60.3
 149   12:10   62.2    28    9.9   123     16.6   772.1    0.00    1016    60.5
 149   12:20   63.6    25    8.7   128     15.1   772.1    0.00     963    60.7
 149   12:30   64.6    25   10.1   126     18.6   772.0    0.00     974    60.8
 149   12:40   65.0    24    8.8   130     15.5   772.0    0.00     649    61.0
 149   12:50   62.7    25    8.9   158     24.0   772.0    0.00     470    61.2
 149   13:00   63.8    25    7.8   156     14.6   772.0    0.00     694    61.4
 149   13:10   64.4    25    5.1    54     11.2   772.0    0.00     672    61.5
 149   13:20   63.4    25    8.8   140     21.5   771.9    0.00     388    61.8
 149   13:30   60.5    28   19.3   160     28.3   771.8    0.00     177    62.0
 149   13:40   56.8    40   26.5   186     38.1   771.6    0.00     130    62.2
 149   13:50   54.9    43   21.8   190     32.4   772.0    0.00     129    62.4
 149   14:00   54.4    48   23.9   163     33.7   772.1    0.00     160    62.6
 149   14:10   53.3    48   19.8   163     29.8   772.3    0.00     197    62.7
 149   14:20   53.7    47   12.5   130     18.8   772.1    0.00     226    62.8
 149   14:30   55.9    36    8.6   126     14.8   772.0    0.00     236    63.0
 149   14:40   57.5    34    3.7   101     11.5   772.0    0.00     267    63.0
 149   14:50   59.0    32    2.0   349      4.7   771.9    0.00     309    63.1
 149   15:00   60.4    30    2.5   297      6.5   771.9    0.00     349    63.0
 149   15:10   60.3    29    4.0   293      6.6   771.9    0.00     414    63.0
 149   15:20   61.4    30    5.1    86     10.9   771.9    0.00     448    63.0
 149   15:30   60.2    30    9.0    90     13.0   771.9    0.00     394    63.0
 149   15:40   60.5    29    9.5    87     14.7   771.9    0.00     494    62.9
 149   15:50   61.4    28    9.0    94     13.5   771.9    0.00     553    62.9
 149   16:00   61.2    28    6.7    95     11.5   771.9    0.00     446    62.9
 149   16:10   61.0    28    9.2    98     18.2   771.8    0.00     378    62.9
 149   16:20   59.9    30   11.2   106     17.8   771.8    0.00     227    62.8
 149   16:30   59.6    30   11.4   118     16.1   771.8    0.00     174    62.7
 149   16:40   59.2    30    7.6    85     13.3   771.8    0.00     137    62.8
 149   16:50   59.3    30    3.6    69      6.9   771.7    0.00     116    62.6
 149   17:00   60.0    30    1.5    84      3.9   771.7    0.00     162    62.5
 149   17:10   60.6    29    3.1   357      6.4   771.7    0.00     202    62.7
 149   17:20   59.8    30    4.7     3      7.1   771.7    0.00     142    62.9
 149   17:30   59.2    30    3.1    38      7.0   771.7    0.00     105    62.9
 149   17:40   58.9    31    3.8     1      7.3   771.8    0.00      91    62.8
 149   17:50   58.5    31    5.3   346      7.4   771.9    0.00      72    62.8
 149   18:00   57.8    32    7.7   336     13.2   771.9    0.00      59    62.7
 149   18:10   57.5    32    7.8   339     12.5   772.0    0.00      39    62.7
 149   18:20   57.2    33    4.2   321      7.3   772.4    0.00      10    62.7
 149   18:30   56.7    34   10.5   205     25.3   772.5    0.00       5    62.7

Return to Warm Springs Summit, Nevada graphs page.


Western Regional Climate Center,wrcc@dri.edu